Time;durP1;ratioP1;P1;durP2;ratioP2;P2;SDS_P1;SDS_P2;PMS_P1;PMS_P2;Temp;Humidity;BMP_temperature;BMP_pressure;BME280_temperature;BME280_humidity;BME280_pressure;Samples;Min_cycle;Max_cycle;Signal;HPM_P1;HPM_P2
2023/05/01 00:00:50;;;;;;;5.00;4.37;;;9.30;99.90;;;;;;5032181;28;20180;-78
2023/05/01 00:03:16;;;;;;;4.47;4.07;;;9.20;99.90;;;;;;5034346;28;20584;-78
2023/05/01 00:05:43;;;;;;;4.77;4.37;;;9.10;99.90;;;;;;5041379;28;20294;-79
2023/05/01 00:08:10;;;;;;;4.87;4.10;;;9.10;99.90;;;;;;5036698;28;20199;-78
2023/05/01 00:10:36;;;;;;;4.90;4.40;;;9.10;99.90;;;;;;5035376;28;20222;-80
2023/05/01 00:13:02;;;;;;;4.97;4.47;;;9.20;99.90;;;;;;5035168;28;20178;-79
2023/05/01 00:15:28;;;;;;;4.60;4.20;;;9.30;99.90;;;;;;5034195;28;20176;-78
2023/05/01 00:17:54;;;;;;;4.83;4.43;;;9.30;99.90;;;;;;5034538;28;20183;-78
2023/05/01 00:20:19;;;;;;;4.20;3.90;;;9.30;99.90;;;;;;5035040;28;20554;-78
2023/05/01 00:22:47;;;;;;;4.43;4.03;;;9.30;99.90;;;;;;5035355;28;20286;-80
2023/05/01 00:25:13;;;;;;;5.13;4.50;;;9.40;99.90;;;;;;5033447;28;20206;-79
2023/05/01 00:27:38;;;;;;;5.03;4.53;;;9.30;99.90;;;;;;5034524;28;20272;-78
2023/05/01 00:30:06;;;;;;;5.07;4.67;;;9.30;99.90;;;;;;5034620;28;20185;-79
2023/05/01 00:32:33;;;;;;;4.30;4.00;;;9.20;99.90;;;;;;5033465;28;20270;-77
2023/05/01 00:34:59;;;;;;;4.83;4.07;;;9.20;99.90;;;;;;5035286;28;20171;-78
2023/05/01 00:37:28;;;;;;;5.27;3.87;;;9.20;99.90;;;;;;5034662;28;20179;-78
2023/05/01 00:39:53;;;;;;;5.00;3.67;;;9.30;99.90;;;;;;5034660;28;20211;-78
2023/05/01 00:42:19;;;;;;;3.83;3.60;;;9.20;99.90;;;;;;5034870;28;20225;-78
2023/05/01 00:44:45;;;;;;;4.47;4.07;;;9.10;99.90;;;;;;5033319;28;20237;-78
2023/05/01 00:47:11;;;;;;;4.23;3.83;;;9.20;99.90;;;;;;5033036;28;20278;-78
2023/05/01 00:49:37;;;;;;;4.57;3.63;;;9.20;99.90;;;;;;5033258;28;20886;-78
2023/05/01 00:52:02;;;;;;;4.43;4.13;;;9.20;99.90;;;;;;5033629;28;20180;-77
2023/05/01 00:54:28;;;;;;;4.60;4.20;;;9.20;99.90;;;;;;5034852;28;20182;-78
2023/05/01 00:56:55;;;;;;;4.30;4.00;;;9.10;99.90;;;;;;5034606;28;20247;-79
2023/05/01 00:59:23;;;;;;;4.93;4.20;;;9.10;99.90;;;;;;5035044;28;20234;-80
2023/05/01 01:01:49;;;;;;;5.03;4.33;;;9.00;99.90;;;;;;5034129;28;20270;-80
2023/05/01 01:04:15;;;;;;;4.27;3.97;;;9.00;99.90;;;;;;5034707;28;20583;-78
2023/05/01 01:06:56;;;;;;;4.97;4.50;;;9.10;99.90;;;;;;5034439;28;20187;-79
2023/05/01 01:09:37;;;;;;;4.63;4.17;;;9.00;99.90;;;;;;5034406;28;20179;-80
2023/05/01 01:12:28;;;;;;;4.23;3.80;;;9.00;99.90;;;;;;5034335;28;20187;-77
2023/05/01 01:15:08;;;;;;;5.50;4.07;;;9.00;99.90;;;;;;5033708;28;20272;-78
2023/05/01 01:17:48;;;;;;;4.73;4.30;;;9.00;99.90;;;;;;5033645;28;20171;-78
2023/05/01 01:20:44;;;;;;;5.07;4.57;;;9.00;99.90;;;;;;5034008;28;20164;-78
2023/05/01 01:23:40;;;;;;;3.97;3.67;;;9.00;99.90;;;;;;5019543;28;20188;-78
2023/05/01 01:26:21;;;;;;;4.70;4.30;;;9.00;99.90;;;;;;5041422;28;20251;-80
2023/05/01 01:29:11;;;;;;;5.00;3.93;;;9.00;99.90;;;;;;5034112;28;20195;-77
2023/05/01 01:31:56;;;;;;;5.73;4.17;;;8.90;99.90;;;;;;5033555;28;20258;-79
2023/05/01 01:34:31;;;;;;;4.63;4.30;;;8.80;99.90;;;;;;5033465;28;20160;-77
2023/05/01 01:37:28;;;;;;;4.17;3.87;;;8.70;99.90;;;;;;5033475;28;20251;-79
2023/05/01 01:40:03;;;;;;;6.53;4.10;;;8.70;99.90;;;;;;4991515;28;20201;-78
2023/05/01 01:42:39;;;;;;;5.27;4.30;;;8.70;99.90;;;;;;4994440;28;20168;-78
2023/05/01 01:45:11;;;;;;;4.40;4.10;;;8.70;99.90;;;;;;4992226;28;20316;-79
2023/05/01 01:47:40;;;;;;;4.60;4.20;;;8.70;99.90;;;;;;4991833;28;20304;-78
2023/05/01 01:50:08;;;;;;;4.57;4.03;;;8.40;99.90;;;;;;4991624;28;20176;-79
2023/05/01 01:52:37;;;;;;;7.47;4.40;;;8.40;99.90;;;;;;4991994;28;20183;-78
2023/05/01 01:55:11;;;;;;;4.13;3.83;;;8.30;99.90;;;;;;4991903;28;20571;-80
2023/05/01 01:57:39;;;;;;;4.07;3.67;;;8.20;99.90;;;;;;4959546;28;20196;-79
2023/05/01 02:00:09;;;;;;;4.30;4.00;;;8.30;99.90;;;;;;4991554;28;20691;-78
2023/05/01 02:02:37;;;;;;;4.40;4.00;;;8.30;99.90;;;;;;4991276;28;20653;-79
2023/05/01 02:05:06;;;;;;;5.40;4.00;;;8.30;99.90;;;;;;4991768;28;20239;-79
2023/05/01 02:07:33;;;;;;;4.53;4.13;;;8.20;99.90;;;;;;4991636;28;20608;-79
2023/05/01 02:10:01;;;;;;;6.73;4.50;;;8.20;99.90;;;;;;4991739;28;20645;-80
2023/05/01 02:12:28;;;;;;;5.90;3.97;;;8.20;99.90;;;;;;4991790;28;20175;-78
2023/05/01 02:14:56;;;;;;;4.73;4.33;;;8.20;99.90;;;;;;4991793;28;20179;-79
2023/05/01 02:17:23;;;;;;;4.13;3.83;;;8.30;99.90;;;;;;5020462;28;20189;-80
2023/05/01 02:19:52;;;;;;;6.70;4.87;;;8.30;99.90;;;;;;5032894;28;20182;-80
2023/05/01 02:22:19;;;;;;;5.13;4.63;;;8.30;99.90;;;;;;5033974;28;20230;-80
2023/05/01 02:24:46;;;;;;;4.53;4.13;;;8.20;99.90;;;;;;5032950;28;20221;-80
2023/05/01 02:27:22;;;;;;;5.03;4.63;;;8.10;99.90;;;;;;5032555;28;20175;-79
2023/05/01 02:29:50;;;;;;;4.77;4.37;;;8.00;99.90;;;;;;5032919;28;20228;-79
2023/05/01 02:32:16;;;;;;;5.83;4.43;;;8.00;99.90;;;;;;5033336;28;20646;-80
2023/05/01 02:34:42;;;;;;;4.33;3.67;;;8.00;99.90;;;;;;5033868;28;20285;-79
2023/05/01 02:37:10;;;;;;;5.27;4.83;;;7.90;99.90;;;;;;5032473;28;20711;-78
2023/05/01 02:39:37;;;;;;;5.20;4.70;;;7.90;99.90;;;;;;5032683;28;20204;-79
2023/05/01 02:42:05;;;;;;;4.73;4.33;;;7.90;99.90;;;;;;5032774;28;20181;-80
2023/05/01 02:44:41;;;;;;;4.70;4.20;;;7.90;99.90;;;;;;5033963;28;20696;-79
2023/05/01 02:47:09;;;;;;;5.90;4.27;;;7.90;99.90;;;;;;5040290;28;20172;-78
2023/05/01 02:49:37;;;;;;;5.13;4.63;;;8.00;99.90;;;;;;5033262;28;20293;-77
2023/05/01 02:52:03;;;;;;;4.90;4.20;;;8.00;99.90;;;;;;5031517;28;20636;-79
2023/05/01 02:54:30;;;;;;;4.53;3.73;;;8.10;99.90;;;;;;5032115;28;20216;-80
2023/05/01 02:56:58;;;;;;;4.67;4.30;;;8.20;99.90;;;;;;5032488;28;20185;-79
2023/05/01 02:59:24;;;;;;;4.50;4.10;;;8.40;99.90;;;;;;5031014;28;20186;-78
2023/05/01 03:01:50;;;;;;;4.87;4.47;;;8.40;99.90;;;;;;5032260;28;20173;-77
2023/05/01 03:04:16;;;;;;;4.10;3.80;;;8.30;99.90;;;;;;5031853;28;20770;-77
2023/05/01 03:06:43;;;;;;;4.87;4.47;;;8.20;99.90;;;;;;5032308;28;20306;-77
2023/05/01 03:09:09;;;;;;;4.30;4.00;;;8.10;99.90;;;;;;5032269;28;20209;-80
2023/05/01 03:11:34;;;;;;;5.60;4.20;;;8.10;99.90;;;;;;5032278;28;20261;-77
2023/05/01 03:14:01;;;;;;;6.00;4.43;;;8.00;99.90;;;;;;5032352;28;20174;-78
2023/05/01 03:16:26;;;;;;;5.80;4.70;;;8.10;99.90;;;;;;5032118;28;20537;-77
2023/05/01 03:18:52;;;;;;;4.80;4.30;;;8.00;99.90;;;;;;5031860;28;20194;-78
2023/05/01 03:21:18;;;;;;;4.47;4.17;;;7.90;99.90;;;;;;5031052;28;20188;-79
2023/05/01 03:23:43;;;;;;;4.93;4.13;;;8.00;99.90;;;;;;5033133;28;20186;-78
2023/05/01 03:26:09;;;;;;;4.60;4.10;;;8.00;99.90;;;;;;5032177;28;20191;-80
2023/05/01 03:28:35;;;;;;;5.10;4.23;;;8.10;99.90;;;;;;5033549;28;20198;-80
2023/05/01 03:31:01;;;;;;;6.27;5.37;;;8.10;99.90;;;;;;5032482;28;20230;-78
2023/05/01 03:33:26;;;;;;;5.60;5.10;;;8.10;99.90;;;;;;5032607;28;20225;-80
2023/05/01 03:36:02;;;;;;;7.87;4.97;;;8.20;99.90;;;;;;5032513;28;20191;-79
2023/05/01 03:38:29;;;;;;;4.70;4.40;;;8.10;99.90;;;;;;5036547;28;20206;-79
2023/05/01 03:40:56;;;;;;;5.03;4.57;;;8.10;99.90;;;;;;5036235;28;20184;-79
2023/05/01 03:43:22;;;;;;;5.97;4.83;;;8.10;99.90;;;;;;5036112;28;20179;-78
2023/05/01 03:45:49;;;;;;;6.73;4.07;;;8.10;99.90;;;;;;5036274;28;20840;-77
2023/05/01 03:48:16;;;;;;;4.73;4.43;;;8.20;99.90;;;;;;5036169;28;20179;-77
2023/05/01 03:50:42;;;;;;;4.60;4.17;;;8.20;99.90;;;;;;5034566;28;20703;-77
2023/05/01 03:53:08;;;;;;;4.33;4.03;;;8.20;99.90;;;;;;5034953;28;20183;-79
2023/05/01 03:55:33;;;;;;;4.80;4.30;;;8.30;99.90;;;;;;5035849;28;20179;-78
2023/05/01 03:57:59;;;;;;;4.63;4.10;;;8.40;99.90;;;;;;5036350;28;20244;-78
2023/05/01 04:00:25;;;;;;;4.60;4.20;;;8.40;99.90;;;;;;5033969;28;20601;-78
2023/05/01 04:02:51;;;;;;;4.23;3.80;;;8.40;99.90;;;;;;5036648;28;20708;-79
2023/05/01 04:05:17;;;;;;;5.37;4.47;;;8.50;99.90;;;;;;5038029;28;20238;-78
2023/05/01 04:07:44;;;;;;;6.17;4.53;;;8.50;99.90;;;;;;5037773;28;20225;-78
2023/05/01 04:10:09;;;;;;;3.77;3.53;;;8.50;99.90;;;;;;5034987;28;20178;-78
2023/05/01 04:12:35;;;;;;;4.73;4.30;;;8.50;99.90;;;;;;5036316;28;20180;-77
2023/05/01 04:15:03;;;;;;;4.63;4.23;;;8.50;99.90;;;;;;5035933;28;20215;-78
2023/05/01 04:17:30;;;;;;;4.53;4.13;;;8.60;99.90;;;;;;5036202;28;20169;-77
2023/05/01 04:19:56;;;;;;;4.53;4.13;;;8.60;99.90;;;;;;5034108;28;20189;-77
2023/05/01 04:22:22;;;;;;;4.40;4.10;;;8.70;99.90;;;;;;5035487;28;20646;-77
2023/05/01 04:24:48;;;;;;;3.67;3.47;;;8.80;99.90;;;;;;5033999;28;20212;-78
2023/05/01 04:27:14;;;;;;;4.87;4.37;;;8.90;99.90;;;;;;5035369;28;20218;-77
2023/05/01 04:29:40;;;;;;;5.73;4.70;;;9.00;99.90;;;;;;5035253;28;20212;-79
2023/05/01 04:32:06;;;;;;;4.77;4.17;;;9.00;99.90;;;;;;5035644;28;20179;-78
2023/05/01 04:34:34;;;;;;;4.57;4.27;;;9.00;99.90;;;;;;5033797;28;20196;-78
2023/05/01 04:37:01;;;;;;;6.17;3.90;;;9.00;99.90;;;;;;5035111;28;20260;-77
2023/05/01 04:39:27;;;;;;;4.70;4.30;;;9.00;99.90;;;;;;5034798;28;20196;-78
2023/05/01 04:41:53;;;;;;;3.90;3.60;;;9.00;99.90;;;;;;5033730;28;20182;-78
2023/05/01 04:44:19;;;;;;;4.33;4.03;;;9.10;99.90;;;;;;5035070;28;20238;-78
2023/05/01 04:46:45;;;;;;;4.43;4.03;;;9.20;99.90;;;;;;5017243;28;20223;-77
2023/05/01 04:49:11;;;;;;;4.90;4.50;;;9.20;99.90;;;;;;5033036;28;20663;-80
2023/05/01 04:51:36;;;;;;;5.13;3.83;;;9.30;99.90;;;;;;5035266;28;20176;-79
2023/05/01 04:54:03;;;;;;;6.97;4.00;;;9.30;99.90;;;;;;5034606;28;20180;-79
2023/05/01 04:56:29;;;;;;;4.97;4.30;;;9.30;99.90;;;;;;5034636;28;20167;-79
2023/05/01 04:58:55;;;;;;;4.50;4.10;;;9.40;99.90;;;;;;5034840;28;20390;-78
2023/05/01 05:01:21;;;;;;;4.53;4.13;;;9.50;99.90;;;;;;5034544;28;20176;-77
2023/05/01 05:03:46;;;;;;;4.47;4.07;;;9.50;99.90;;;;;;5034163;28;20231;-77
2023/05/01 05:06:12;;;;;;;4.50;4.10;;;9.50;99.90;;;;;;5036282;28;20194;-77
2023/05/01 05:08:38;;;;;;;4.03;3.80;;;9.50;99.90;;;;;;5035496;28;20245;-77
2023/05/01 05:11:04;;;;;;;5.47;4.43;;;9.50;99.90;;;;;;5033322;28;20210;-79
2023/05/01 05:13:30;;;;;;;4.60;4.20;;;9.50;99.90;;;;;;5034662;28;20176;-77
2023/05/01 05:15:56;;;;;;;4.70;4.33;;;9.50;99.90;;;;;;5034599;28;20175;-79
2023/05/01 05:18:24;;;;;;;3.97;3.70;;;9.60;99.90;;;;;;5034209;28;20186;-78
2023/05/01 05:20:50;;;;;;;4.27;3.83;;;9.70;99.90;;;;;;5034488;28;20658;-77
2023/05/01 05:23:16;;;;;;;5.70;4.17;;;9.70;99.90;;;;;;5034749;28;20173;-77
2023/05/01 05:25:42;;;;;;;4.13;3.93;;;9.70;99.90;;;;;;5038617;28;20223;-79
2023/05/01 05:28:08;;;;;;;4.83;4.17;;;9.60;99.90;;;;;;5035257;28;20173;-80
2023/05/01 05:30:34;;;;;;;5.60;4.93;;;9.60;99.90;;;;;;5034487;28;20176;-79
2023/05/01 05:33:00;;;;;;;4.20;3.90;;;9.70;99.90;;;;;;5034392;28;20168;-77
2023/05/01 05:35:26;;;;;;;4.20;3.90;;;9.70;99.90;;;;;;5035048;28;20177;-78
2023/05/01 05:37:52;;;;;;;4.30;4.00;;;9.70;99.90;;;;;;5039952;28;20193;-78
2023/05/01 05:40:18;;;;;;;4.47;4.07;;;9.70;99.90;;;;;;5035715;28;20536;-78
2023/05/01 05:42:44;;;;;;;4.43;4.03;;;9.80;99.90;;;;;;5034055;28;20259;-79
2023/05/01 05:45:09;;;;;;;4.33;4.03;;;9.80;99.90;;;;;;5032574;28;20287;-78
2023/05/01 05:47:35;;;;;;;4.20;3.90;;;9.70;99.90;;;;;;5033928;28;20183;-79
2023/05/01 05:50:01;;;;;;;4.17;3.77;;;9.70;99.90;;;;;;5033967;28;20172;-78
2023/05/01 05:52:27;;;;;;;4.90;4.40;;;9.70;99.90;;;;;;5032548;28;20203;-78
2023/05/01 05:54:56;;;;;;;4.70;4.30;;;9.70;99.90;;;;;;5032472;28;20181;-77
2023/05/01 05:57:21;;;;;;;7.07;4.60;;;9.70;99.90;;;;;;5032402;28;20267;-78
2023/05/01 05:59:47;;;;;;;4.70;4.30;;;9.80;99.90;;;;;;5032658;28;20230;-78
2023/05/01 06:02:13;;;;;;;4.40;4.00;;;9.90;99.90;;;;;;5033858;28;20200;-78
2023/05/01 06:04:39;;;;;;;4.50;4.20;;;10.00;99.90;;;;;;5033310;28;20232;-79
2023/05/01 06:07:05;;;;;;;4.40;4.00;;;10.00;99.90;;;;;;5032052;28;20184;-79
2023/05/01 06:09:31;;;;;;;4.13;3.83;;;10.10;99.90;;;;;;5033555;28;20585;-78
2023/05/01 06:11:57;;;;;;;4.67;4.30;;;10.20;99.90;;;;;;5033623;28;20168;-77
2023/05/01 06:14:23;;;;;;;4.80;4.03;;;10.20;99.90;;;;;;5032232;28;20540;-77
2023/05/01 06:16:49;;;;;;;4.30;3.90;;;10.50;99.90;;;;;;5032148;28;20182;-79
2023/05/01 06:19:14;;;;;;;4.70;4.30;;;10.70;99.90;;;;;;5033194;28;20181;-79
2023/05/01 06:21:40;;;;;;;4.60;4.20;;;10.90;99.90;;;;;;5033431;28;20203;-78
2023/05/01 06:24:06;;;;;;;4.23;3.87;;;11.00;99.90;;;;;;5033521;28;20208;-78
2023/05/01 06:26:31;;;;;;;4.67;4.27;;;11.10;99.90;;;;;;5033319;28;20594;-80
2023/05/01 06:28:57;;;;;;;4.63;3.97;;;11.30;99.90;;;;;;5033285;28;20180;-79
2023/05/01 06:31:23;;;;;;;3.53;3.23;;;11.20;99.90;;;;;;5032147;28;20188;-77
2023/05/01 06:33:49;;;;;;;10.57;7.40;;;11.30;99.90;;;;;;5033354;28;20200;-77
2023/05/01 06:36:14;;;;;;;9.30;6.10;;;11.40;99.90;;;;;;5033259;28;20177;-77
2023/05/01 06:38:43;;;;;;;6.83;3.63;;;11.50;99.90;;;;;;5031955;28;20184;-78
2023/05/01 06:41:09;;;;;;;3.73;3.43;;;11.60;99.90;;;;;;5033919;28;20335;-78
2023/05/01 06:43:35;;;;;;;3.77;3.57;;;11.60;99.90;;;;;;5033347;28;20689;-77
2023/05/01 06:46:00;;;;;;;3.87;3.57;;;11.60;99.60;;;;;;5033434;28;20314;-77
2023/05/01 06:48:26;;;;;;;5.43;3.67;;;11.70;99.50;;;;;;5034319;28;20172;-77
2023/05/01 06:50:52;;;;;;;3.67;3.47;;;11.80;99.20;;;;;;5033247;28;20187;-78
2023/05/01 06:53:18;;;;;;;4.00;3.70;;;11.90;99.20;;;;;;5033302;28;20225;-79
2023/05/01 06:55:43;;;;;;;3.93;3.63;;;12.00;99.20;;;;;;5032765;28;20583;-78
2023/05/01 06:58:09;;;;;;;3.83;3.53;;;12.10;99.00;;;;;;5034884;28;20177;-79
2023/05/01 07:00:35;;;;;;;3.90;3.60;;;12.20;99.20;;;;;;5033946;28;20214;-76
2023/05/01 07:03:02;;;;;;;3.93;3.73;;;12.30;98.70;;;;;;5032051;28;20690;-78
2023/05/01 07:05:28;;;;;;;3.97;3.70;;;12.30;98.80;;;;;;5032804;28;20234;-77
2023/05/01 07:07:53;;;;;;;4.03;3.63;;;12.40;98.50;;;;;;5032795;28;20204;-77
2023/05/01 07:10:19;;;;;;;4.20;3.90;;;12.60;98.30;;;;;;5033894;28;20202;-78
2023/05/01 07:12:46;;;;;;;4.10;3.73;;;12.70;98.00;;;;;;5034569;28;20180;-77
2023/05/01 07:15:14;;;;;;;4.03;3.73;;;12.80;97.70;;;;;;5033015;28;20168;-77
2023/05/01 07:17:40;;;;;;;6.50;5.17;;;13.00;97.70;;;;;;5030960;28;20189;-78
2023/05/01 07:20:06;;;;;;;5.93;5.37;;;13.10;98.10;;;;;;5031217;28;20188;-79
2023/05/01 07:22:32;;;;;;;3.97;3.67;;;13.30;98.00;;;;;;5032681;28;20548;-77
2023/05/01 07:25:00;;;;;;;4.47;4.17;;;13.20;97.50;;;;;;5032199;28;20257;-77
2023/05/01 07:27:25;;;;;;;3.93;3.60;;;13.30;97.40;;;;;;5032477;28;20211;-77
2023/05/01 07:29:52;;;;;;;3.87;3.67;;;13.40;97.60;;;;;;5031020;28;20563;-78
2023/05/01 07:32:18;;;;;;;4.10;3.80;;;13.70;97.30;;;;;;5032360;28;20172;-79
2023/05/01 07:34:43;;;;;;;4.97;4.47;;;13.90;97.30;;;;;;5032453;28;20206;-78
2023/05/01 07:37:09;;;;;;;4.80;4.40;;;14.10;96.60;;;;;;5032428;28;20199;-78
2023/05/01 07:39:38;;;;;;;4.27;3.87;;;14.20;95.90;;;;;;5031876;28;20264;-79
2023/05/01 07:42:04;;;;;;;5.57;5.00;;;14.30;95.80;;;;;;5031826;28;20219;-77
2023/05/01 07:44:31;;;;;;;4.23;3.93;;;14.40;95.70;;;;;;5031865;28;20598;-78
2023/05/01 07:47:02;;;;;;;3.90;3.60;;;14.40;95.10;;;;;;5031576;28;20187;-79
2023/05/01 07:49:29;;;;;;;3.80;3.50;;;14.50;95.40;;;;;;5031751;28;20185;-79
2023/05/01 07:51:54;;;;;;;5.10;4.60;;;14.70;95.10;;;;;;5031936;28;20244;-76
2023/05/01 07:54:21;;;;;;;5.40;4.90;;;14.80;95.20;;;;;;5031966;28;20736;-77
2023/05/01 07:56:47;;;;;;;4.50;4.20;;;14.90;95.10;;;;;;5030376;28;20187;-77
2023/05/01 07:59:14;;;;;;;3.80;3.60;;;15.00;95.40;;;;;;5032117;28;20173;-77
2023/05/01 08:01:40;;;;;;;5.13;4.13;;;15.10;95.40;;;;;;5030380;28;20513;-76
2023/05/01 08:04:06;;;;;;;4.40;4.00;;;15.10;95.70;;;;;;5031693;28;20255;-77
2023/05/01 08:06:32;;;;;;;4.33;3.97;;;15.20;95.40;;;;;;5046022;28;20184;-78
2023/05/01 08:08:58;;;;;;;4.10;3.80;;;15.10;94.60;;;;;;5037359;28;20173;-78
2023/05/01 08:11:24;;;;;;;4.47;4.07;;;14.90;95.00;;;;;;5031128;28;20181;-77
2023/05/01 08:13:50;;;;;;;3.90;3.70;;;14.90;94.50;;;;;;5031756;28;20287;-79
2023/05/01 08:16:16;;;;;;;4.07;3.77;;;14.70;94.60;;;;;;5031966;28;20180;-77
2023/05/01 08:18:41;;;;;;;4.10;3.80;;;14.40;94.70;;;;;;5031886;28;20196;-76
2023/05/01 08:21:07;;;;;;;4.50;4.10;;;14.60;95.20;;;;;;5032315;28;20264;-77
2023/05/01 08:23:33;;;;;;;4.40;4.00;;;14.80;95.20;;;;;;5032089;28;20195;-77
2023/05/01 08:25:59;;;;;;;3.77;3.57;;;15.00;95.00;;;;;;5037190;28;20208;-77
2023/05/01 08:28:24;;;;;;;4.40;4.03;;;15.10;94.50;;;;;;5036967;28;20531;-77
2023/05/01 08:30:50;;;;;;;4.20;3.90;;;15.20;94.40;;;;;;5036269;28;20177;-77
2023/05/01 08:33:16;;;;;;;4.20;3.90;;;15.30;95.00;;;;;;5036188;28;20176;-80
2023/05/01 08:35:42;;;;;;;4.50;3.90;;;15.30;94.90;;;;;;5039926;28;20176;-80
2023/05/01 08:38:10;;;;;;;4.10;3.80;;;15.40;94.80;;;;;;5035501;28;20610;-78
2023/05/01 08:40:37;;;;;;;3.80;3.50;;;15.40;94.70;;;;;;5035558;28;20230;-78
2023/05/01 08:43:03;;;;;;;5.27;3.63;;;15.50;94.90;;;;;;5035318;28;20571;-79
2023/05/01 08:45:36;;;;;;;4.03;3.73;;;15.60;94.70;;;;;;5038802;28;20203;-79
2023/05/01 08:48:05;;;;;;;5.70;4.03;;;15.70;94.70;;;;;;5035102;28;20152;-78
2023/05/01 08:50:35;;;;;;;4.40;4.03;;;15.60;94.60;;;;;;5034945;28;20660;-78
2023/05/01 08:53:02;;;;;;;4.67;4.27;;;15.60;95.00;;;;;;5034853;28;20196;-78
2023/05/01 08:55:30;;;;;;;4.10;3.80;;;15.60;94.10;;;;;;5034915;28;20168;-76
2023/05/01 08:57:57;;;;;;;3.70;3.50;;;15.60;94.60;;;;;;5034730;28;20181;-77
2023/05/01 09:00:26;;;;;;;4.07;3.80;;;15.70;94.70;;;;;;5034489;28;20480;-77
2023/05/01 09:02:51;;;;;;;3.87;3.57;;;15.70;94.70;;;;;;5033111;28;20335;-79
2023/05/01 09:05:18;;;;;;;3.87;3.60;;;15.60;94.00;;;;;;5034798;28;20301;-78
2023/05/01 09:07:45;;;;;;;4.00;3.70;;;15.50;94.60;;;;;;5035124;28;20200;-78
2023/05/01 09:10:16;;;;;;;4.03;3.73;;;15.60;95.00;;;;;;5034780;28;20515;-79
2023/05/01 09:12:45;;;;;;;4.60;4.00;;;15.80;93.90;;;;;;5033303;28;20172;-78
2023/05/01 09:15:11;;;;;;;4.50;3.90;;;15.80;94.00;;;;;;5034685;28;20188;-78
2023/05/01 09:17:40;;;;;;;3.97;3.77;;;15.80;94.10;;;;;;5033431;28;20182;-79
2023/05/01 09:20:06;;;;;;;5.20;4.80;;;15.90;94.50;;;;;;5034382;28;20179;-77
2023/05/01 09:22:33;;;;;;;4.00;3.70;;;16.10;94.30;;;;;;5034490;28;20204;-77
2023/05/01 09:25:00;;;;;;;4.47;3.80;;;16.30;94.30;;;;;;5035784;28;20211;-77
2023/05/01 09:27:26;;;;;;;4.07;3.77;;;16.50;94.20;;;;;;5039721;28;20261;-78
2023/05/01 09:29:52;;;;;;;4.20;3.90;;;16.60;93.70;;;;;;5034551;28;20178;-77
2023/05/01 09:32:20;;;;;;;3.80;3.50;;;16.40;93.50;;;;;;5032671;28;20203;-78
2023/05/01 09:34:50;;;;;;;4.00;3.70;;;16.70;93.60;;;;;;5033944;28;20188;-77
2023/05/01 09:37:30;;;;;;;3.50;3.30;;;16.90;93.60;;;;;;5032863;28;20271;-77
2023/05/01 09:40:12;;;;;;;3.77;3.47;;;17.10;93.90;;;;;;5034432;28;20167;-79
2023/05/01 09:42:50;;;;;;;4.87;3.73;;;17.30;93.90;;;;;;5034217;28;20169;-78
2023/05/01 09:45:18;;;;;;;4.23;3.93;;;17.10;93.50;;;;;;5034268;28;20302;-79
2023/05/01 09:47:45;;;;;;;4.73;3.60;;;16.70;93.50;;;;;;5034326;28;20168;-77
2023/05/01 09:50:31;;;;;;;4.10;3.70;;;16.60;93.80;;;;;;5035287;28;20528;-79
2023/05/01 09:52:59;;;;;;;4.30;4.00;;;16.80;94.00;;;;;;5034759;28;20195;-77
2023/05/01 09:55:25;;;;;;;4.30;3.87;;;17.00;94.10;;;;;;5034420;28;20546;-77
2023/05/01 09:57:51;;;;;;;3.73;3.53;;;17.10;93.00;;;;;;5033740;28;20168;-78
2023/05/01 10:00:20;;;;;;;3.60;3.40;;;17.20;92.60;;;;;;5032547;28;20594;-78
2023/05/01 10:02:47;;;;;;;3.67;3.40;;;17.30;93.20;;;;;;5033455;28;20179;-77
2023/05/01 10:05:13;;;;;;;3.70;3.40;;;17.60;93.10;;;;;;5033452;28;20207;-77
2023/05/01 10:08:01;;;;;;;4.07;3.77;;;17.40;92.80;;;;;;5034709;28;20169;-77
2023/05/01 10:10:27;;;;;;;4.10;3.80;;;17.30;92.60;;;;;;5033312;28;20195;-79
2023/05/01 10:12:53;;;;;;;3.93;3.63;;;17.40;92.80;;;;;;5033655;28;20246;-79
2023/05/01 10:15:19;;;;;;;5.00;3.70;;;17.30;93.00;;;;;;5033545;28;20531;-77
2023/05/01 10:17:48;;;;;;;4.20;3.80;;;17.70;93.80;;;;;;5035893;28;20256;-77
2023/05/01 10:20:14;;;;;;;4.13;3.80;;;18.20;93.40;;;;;;5034407;28;20180;-77
2023/05/01 10:22:40;;;;;;;4.27;4.07;;;18.40;93.00;;;;;;5031744;28;20219;-78
2023/05/01 10:25:10;;;;;;;3.70;3.40;;;18.40;91.50;;;;;;5034264;28;20210;-77
2023/05/01 10:27:39;;;;;;;5.83;3.50;;;17.80;92.00;;;;;;5033482;28;20204;-79
2023/05/01 10:30:08;;;;;;;3.60;3.40;;;18.10;93.00;;;;;;5033314;28;20208;-77
2023/05/01 10:32:35;;;;;;;3.90;3.60;;;18.30;91.80;;;;;;5033453;28;20184;-77
2023/05/01 10:35:12;;;;;;;4.20;3.90;;;18.40;91.40;;;;;;5033632;28;20186;-78
2023/05/01 10:37:47;;;;;;;3.70;3.40;;;18.50;91.90;;;;;;5033312;28;20204;-76
2023/05/01 10:40:38;;;;;;;3.20;2.90;;;18.50;91.30;;;;;;5041319;28;20182;-78
2023/05/01 10:43:27;;;;;;;3.20;3.00;;;18.40;91.70;;;;;;5038304;28;20168;-78
2023/05/01 10:46:17;;;;;;;6.27;2.97;;;18.30;91.80;;;;;;5035808;28;20207;-79
2023/05/01 10:48:43;;;;;;;3.33;3.13;;;18.10;90.90;;;;;;5034025;28;20177;-76
2023/05/01 10:51:13;;;;;;;3.60;3.30;;;17.70;91.10;;;;;;5032179;28;20231;-79
2023/05/01 10:53:40;;;;;;;3.43;3.20;;;17.70;91.50;;;;;;5032825;28;20168;-77
2023/05/01 10:56:31;;;;;;;3.10;2.90;;;17.80;91.70;;;;;;5033176;28;20176;-77
2023/05/01 10:58:57;;;;;;;3.63;3.43;;;17.80;92.60;;;;;;5032662;28;20247;-77
2023/05/01 11:01:47;;;;;;;3.70;3.37;;;18.00;92.40;;;;;;5033371;28;20187;-78
2023/05/01 11:04:25;;;;;;;3.30;3.20;;;18.10;91.50;;;;;;5034324;28;20228;-77
2023/05/01 11:07:04;;;;;;;3.10;3.00;;;18.10;91.00;;;;;;5033823;28;20195;-77
2023/05/01 11:09:54;;;;;;;3.73;3.43;;;18.10;91.90;;;;;;5034731;28;20203;-78
2023/05/01 11:12:44;;;;;;;3.13;2.90;;;18.30;91.70;;;;;;5034394;28;20165;-76
2023/05/01 11:15:12;;;;;;;3.27;3.07;;;18.60;91.50;;;;;;5035193;28;20196;-78
2023/05/01 11:17:41;;;;;;;3.10;2.87;;;18.70;90.80;;;;;;5035772;28;20168;-76
2023/05/01 11:20:07;;;;;;;3.40;2.60;;;18.60;89.80;;;;;;5035305;28;20250;-77
2023/05/01 11:22:34;;;;;;;3.40;3.10;;;18.70;90.60;;;;;;5034219;28;20222;-77
2023/05/01 11:25:16;;;;;;;3.00;2.80;;;18.30;90.20;;;;;;5033643;28;20200;-78
2023/05/01 11:27:49;;;;;;;3.20;3.00;;;18.40;90.80;;;;;;5032014;28;20647;-79
2023/05/01 11:30:16;;;;;;;2.97;2.87;;;18.60;90.60;;;;;;5033673;28;20254;-76
2023/05/01 11:32:46;;;;;;;3.30;3.10;;;18.70;90.30;;;;;;5033256;28;20164;-78
2023/05/01 11:35:23;;;;;;;3.03;2.83;;;18.70;90.50;;;;;;5032147;28;20173;-77
2023/05/01 11:37:50;;;;;;;3.10;2.80;;;18.90;90.10;;;;;;5033993;28;20532;-78
2023/05/01 11:40:23;;;;;;;3.07;2.87;;;19.00;90.00;;;;;;5033855;28;20219;-77
2023/05/01 11:42:50;;;;;;;16.17;10.43;;;19.10;90.10;;;;;;5034858;28;20179;-78
2023/05/01 11:45:17;;;;;;;3.97;3.67;;;18.90;89.90;;;;;;5034314;28;20559;-77
2023/05/01 11:47:43;;;;;;;3.50;3.30;;;18.90;90.40;;;;;;5033514;28;20547;-77
2023/05/01 11:50:10;;;;;;;2.90;2.70;;;19.00;90.90;;;;;;5033640;28;20271;-78
2023/05/01 11:52:52;;;;;;;3.37;3.17;;;18.90;91.10;;;;;;5036950;28;20231;-77
2023/05/01 11:55:18;;;;;;;5.10;4.63;;;18.90;90.20;;;;;;5033222;28;20222;-77
2023/05/01 11:57:50;;;;;;;3.33;3.03;;;18.80;90.00;;;;;;5033413;28;20172;-77
2023/05/01 12:00:29;;;;;;;3.20;2.67;;;18.70;90.10;;;;;;5035898;28;20169;-78
2023/05/01 12:03:05;;;;;;;2.97;2.80;;;18.70;90.50;;;;;;5037533;28;20207;-76
2023/05/01 12:05:34;;;;;;;3.47;3.17;;;18.80;90.20;;;;;;5037595;28;20544;-78
2023/05/01 12:08:10;;;;;;;3.67;3.40;;;18.80;90.30;;;;;;5041080;28;20192;-78
2023/05/01 12:10:43;;;;;;;2.80;2.60;;;18.90;90.40;;;;;;5036400;28;20188;-77
2023/05/01 12:13:10;;;;;;;2.60;2.50;;;19.00;90.00;;;;;;5035716;28;20168;-77
2023/05/01 12:15:39;;;;;;;3.00;2.60;;;19.00;90.20;;;;;;5034186;28;20211;-79
2023/05/01 12:18:06;;;;;;;3.00;2.80;;;19.20;90.20;;;;;;5035698;28;20690;-78
2023/05/01 12:20:46;;;;;;;3.10;2.73;;;19.30;90.10;;;;;;5034265;28;20222;-77
2023/05/01 12:23:14;;;;;;;2.60;2.50;;;19.20;89.40;;;;;;5035719;28;20168;-76
2023/05/01 12:25:42;;;;;;;2.50;2.40;;;19.40;88.20;;;;;;5035781;28;20223;-77
2023/05/01 12:28:19;;;;;;;2.90;2.70;;;19.30;88.20;;;;;;5035892;28;20254;-77
2023/05/01 12:30:48;;;;;;;3.10;2.87;;;19.40;88.10;;;;;;5035911;28;20387;-77
2023/05/01 12:33:18;;;;;;;2.60;2.50;;;19.50;88.30;;;;;;5035647;28;20169;-78
2023/05/01 12:35:46;;;;;;;2.67;2.47;;;19.60;88.10;;;;;;5035887;28;20207;-77
2023/05/01 12:38:19;;;;;;;2.60;2.40;;;19.50;88.20;;;;;;5034883;28;20561;-79
2023/05/01 12:40:52;;;;;;;3.20;3.00;;;19.20;90.30;;;;;;5037945;28;20169;-80
2023/05/01 12:43:29;;;;;;;2.50;2.40;;;19.20;90.10;;;;;;5037648;28;20200;-78
2023/05/01 12:45:55;;;;;;;2.30;2.20;;;19.30;90.10;;;;;;5036493;28;20253;-78
2023/05/01 12:48:21;;;;;;;2.40;2.30;;;19.40;88.70;;;;;;5036494;28;20537;-77
2023/05/01 12:50:53;;;;;;;2.20;2.10;;;19.50;88.60;;;;;;5040058;28;20200;-77
2023/05/01 12:53:24;;;;;;;2.33;2.23;;;19.50;88.60;;;;;;5043596;28;20189;-76
2023/05/01 12:55:55;;;;;;;2.50;2.40;;;19.60;89.40;;;;;;5037510;28;20184;-79
2023/05/01 12:58:21;;;;;;;2.27;2.17;;;19.60;90.20;;;;;;5035138;28;20629;-79